createdAt,value
2023-02-17T00:00:52.753Z,3.83
2023-02-17T00:01:54.716Z,3.80
2023-02-17T00:02:58.064Z,3.80
2023-02-17T00:04:01.655Z,3.53
2023-02-17T00:05:04.879Z,3.90
2023-02-17T00:06:08.267Z,3.90
2023-02-17T00:07:11.319Z,3.77
2023-02-17T00:08:13.354Z,3.67
2023-02-17T00:09:16.632Z,3.93
2023-02-17T00:10:19.182Z,4.03
2023-02-17T00:11:22.227Z,4.50
2023-02-17T00:12:24.641Z,3.80
2023-02-17T00:13:27.665Z,3.87
2023-02-17T00:14:29.679Z,3.93
2023-02-17T00:15:32.648Z,4.20
2023-02-17T00:16:34.651Z,4.03
2023-02-17T00:17:37.682Z,4.10
2023-02-17T00:18:39.714Z,4.60
2023-02-17T00:19:44.017Z,4.47
2023-02-17T00:20:46.126Z,4.50
2023-02-17T00:21:49.056Z,4.27
2023-02-17T00:22:51.061Z,3.97
2023-02-17T00:23:54.219Z,4.10
2023-02-17T00:24:56.251Z,4.30
2023-02-17T00:25:59.286Z,4.57
2023-02-17T00:27:02.260Z,4.20
2023-02-17T00:28:04.732Z,4.20
2023-02-17T00:29:07.784Z,4.50
2023-02-17T00:30:10.444Z,4.00
2023-02-17T00:31:17.771Z,4.00
2023-02-17T00:32:19.824Z,4.27
2023-02-17T00:33:22.778Z,4.33
2023-02-17T00:34:25.326Z,3.53
2023-02-17T00:35:29.967Z,3.77
2023-02-17T00:36:32.078Z,4.00
2023-02-17T00:37:36.327Z,3.90
2023-02-17T00:38:38.345Z,3.97
2023-02-17T00:39:41.376Z,4.00
2023-02-17T00:40:43.657Z,3.70
2023-02-17T00:41:46.663Z,3.83
2023-02-17T00:42:48.998Z,4.10
2023-02-17T00:43:52.061Z,4.40
2023-02-17T00:44:55.070Z,3.77
2023-02-17T00:45:57.215Z,3.60
2023-02-17T00:47:00.191Z,4.03
2023-02-17T00:48:02.359Z,3.67
2023-02-17T00:49:05.355Z,3.93
2023-02-17T00:50:08.454Z,3.83
2023-02-17T00:51:13.268Z,3.90
2023-02-17T00:52:15.259Z,3.53
2023-02-17T00:53:18.258Z,4.60
2023-02-17T00:54:20.865Z,3.97
2023-02-17T00:55:23.858Z,4.03
2023-02-17T00:56:26.086Z,3.67
2023-02-17T00:57:32.161Z,3.40
2023-02-17T00:58:35.606Z,3.57
2023-02-17T00:59:37.685Z,4.00
2023-02-17T01:00:44.185Z,3.67
2023-02-17T01:01:46.290Z,3.67
2023-02-17T01:02:49.278Z,3.73
2023-02-17T01:03:52.042Z,3.70
2023-02-17T01:04:55.131Z,3.67
2023-02-17T01:05:57.583Z,3.70
2023-02-17T01:07:01.894Z,3.43
2023-02-17T01:08:04.102Z,3.40
2023-02-17T01:09:09.296Z,3.27
2023-02-17T01:10:11.784Z,3.83
2023-02-17T01:11:18.709Z,3.50
2023-02-17T01:12:20.758Z,3.57
2023-02-17T01:13:23.751Z,3.40
2023-02-17T01:14:25.852Z,3.60
2023-02-17T01:15:32.812Z,3.30
2023-02-17T01:16:37.948Z,3.40
2023-02-17T01:17:40.964Z,3.57
2023-02-17T01:18:43.002Z,3.60
2023-02-17T01:19:47.642Z,3.60
2023-02-17T01:20:52.366Z,3.67
2023-02-17T01:21:55.346Z,3.80
2023-02-17T01:22:58.733Z,4.00
2023-02-17T01:24:04.325Z,3.57
2023-02-17T01:25:07.275Z,3.90
2023-02-17T01:26:15.078Z,3.77
2023-02-17T01:27:17.064Z,3.83
2023-02-17T01:28:21.971Z,3.53
2023-02-17T01:29:23.966Z,3.67
2023-02-17T01:30:27.055Z,3.80
2023-02-17T01:31:29.511Z,3.70
2023-02-17T01:32:32.621Z,3.77
2023-02-17T01:33:34.687Z,3.13
2023-02-17T01:34:38.505Z,3.77
2023-02-17T01:35:42.146Z,3.90
2023-02-17T01:36:45.103Z,3.30
2023-02-17T01:37:47.102Z,4.17
2023-02-17T01:38:51.686Z,3.53
2023-02-17T01:39:53.693Z,3.90
2023-02-17T01:40:56.976Z,3.50
2023-02-17T01:41:59.041Z,4.13
2023-02-17T01:43:02.074Z,3.90
2023-02-17T01:44:13.480Z,3.43
2023-02-17T01:45:36.172Z,3.63
2023-02-17T01:46:39.602Z,4.03
2023-02-17T01:47:42.892Z,3.63
2023-02-17T01:48:50.778Z,3.60
2023-02-17T01:49:53.779Z,3.23
2023-02-17T01:51:02.332Z,3.70
2023-02-17T01:52:11.485Z,3.47
2023-02-17T01:53:18.251Z,3.33
2023-02-17T01:54:27.875Z,4.37
2023-02-17T01:55:32.019Z,3.97
2023-02-17T01:56:38.157Z,3.80
2023-02-17T01:57:41.865Z,4.13
2023-02-17T01:58:47.828Z,3.93
2023-02-17T01:59:51.083Z,3.33
2023-02-17T02:00:56.102Z,4.10
2023-02-17T02:02:00.917Z,4.00
2023-02-17T02:03:07.454Z,3.80
2023-02-17T02:04:10.503Z,3.50
2023-02-17T02:05:19.828Z,3.83
2023-02-17T02:06:26.243Z,3.57
2023-02-17T02:07:32.961Z,3.77
2023-02-17T02:08:42.906Z,3.50
2023-02-17T02:09:51.570Z,3.53
2023-02-17T02:10:53.594Z,3.63
2023-02-17T02:11:56.608Z,3.80
2023-02-17T02:12:58.651Z,3.70
2023-02-17T02:14:02.979Z,3.80
2023-02-17T02:15:09.001Z,3.30
2023-02-17T02:16:18.804Z,3.33
2023-02-17T02:17:32.855Z,4.47
2023-02-17T02:18:44.863Z,4.07
2023-02-17T02:20:15.157Z,3.60
2023-02-17T02:21:58.122Z,3.80
2023-02-17T02:23:40.753Z,3.73
2023-02-17T02:24:54.867Z,3.50
2023-02-17T02:26:24.121Z,3.50
2023-02-17T02:27:43.510Z,3.37
2023-02-17T02:29:04.447Z,3.40
2023-02-17T02:30:34.219Z,3.47
2023-02-17T02:31:43.930Z,3.20
2023-02-17T02:32:57.822Z,3.33
2023-02-17T02:34:04.875Z,3.53
2023-02-17T02:35:14.535Z,3.73
2023-02-17T02:36:20.491Z,3.40
2023-02-17T02:37:31.376Z,3.67
2023-02-17T02:38:40.626Z,3.00
2023-02-17T02:39:47.764Z,2.63
2023-02-17T02:40:57.573Z,3.03
2023-02-17T02:42:06.510Z,3.37
2023-02-17T04:09:48.147Z,3.53
2023-02-17T04:10:52.584Z,3.53
2023-02-17T04:11:55.690Z,3.90
2023-02-17T04:12:57.753Z,3.50
2023-02-17T04:14:00.875Z,3.50
2023-02-17T04:15:02.957Z,3.60
2023-02-17T04:16:07.442Z,3.90
2023-02-17T04:17:09.637Z,3.30
2023-02-17T04:18:12.768Z,3.57
2023-02-17T04:19:14.759Z,4.50
2023-02-17T04:20:17.860Z,4.17
2023-02-17T04:21:20.217Z,4.07
2023-02-17T04:22:24.577Z,4.10
2023-02-17T04:23:27.155Z,4.00
2023-02-17T04:24:30.131Z,3.90
2023-02-17T04:25:34.481Z,3.87
2023-02-17T04:26:37.484Z,4.00
2023-02-17T04:27:39.562Z,4.43
2023-02-17T04:28:43.207Z,4.90
2023-02-17T04:29:45.293Z,5.40
2023-02-17T04:30:50.144Z,4.63
2023-02-17T04:31:52.458Z,4.70
2023-02-17T04:32:55.569Z,4.63
2023-02-17T04:33:57.766Z,4.20
2023-02-17T04:35:00.765Z,4.67
2023-02-17T04:36:02.860Z,4.40
2023-02-17T04:37:06.196Z,4.17
2023-02-17T04:38:10.577Z,4.67
2023-02-17T04:39:13.610Z,4.43
2023-02-17T04:40:16.038Z,4.47
2023-02-17T04:41:19.064Z,4.27
2023-02-17T04:42:21.063Z,4.33
2023-02-17T04:43:24.463Z,3.93
2023-02-17T04:44:26.540Z,4.30
2023-02-17T04:45:29.660Z,4.30
2023-02-17T04:46:32.771Z,4.40
2023-02-17T04:47:35.083Z,4.87
2023-02-17T04:48:38.172Z,4.67
2023-02-17T04:49:40.200Z,4.53
2023-02-17T04:50:43.202Z,4.20
2023-02-17T04:51:45.239Z,4.20
2023-02-17T04:52:48.375Z,4.00
2023-02-17T04:53:51.743Z,4.20
2023-02-17T04:54:54.796Z,4.63
2023-02-17T04:55:56.949Z,4.80
2023-02-17T04:56:59.979Z,4.17
2023-02-17T04:58:02.021Z,4.60
2023-02-17T04:59:05.014Z,4.20
2023-02-17T05:00:08.684Z,4.77
2023-02-17T05:01:11.755Z,4.17
2023-02-17T05:02:13.862Z,4.30
2023-02-17T05:03:17.144Z,4.00
2023-02-17T05:04:19.336Z,4.47
2023-02-17T05:05:22.381Z,3.97
2023-02-17T05:06:24.378Z,3.90
2023-02-17T05:07:27.547Z,3.90
2023-02-17T05:08:29.636Z,4.10
2023-02-17T05:09:34.167Z,4.67
2023-02-17T05:10:36.299Z,4.27
2023-02-17T05:11:39.331Z,4.40
2023-02-17T05:12:41.621Z,4.40
2023-02-17T05:13:44.571Z,4.40
2023-02-17T05:14:46.658Z,4.53
2023-02-17T05:15:49.799Z,4.60
2023-02-17T05:16:51.911Z,4.30
2023-02-17T05:17:54.913Z,4.53
2023-02-17T05:18:57.894Z,4.37
2023-02-17T05:20:00.197Z,4.80
2023-02-17T05:21:03.439Z,4.40
2023-02-17T05:22:05.572Z,4.67
2023-02-17T05:23:08.726Z,4.43
2023-02-17T05:24:10.771Z,4.57
2023-02-17T05:25:15.327Z,4.40
2023-02-17T05:26:17.365Z,4.60
2023-02-17T05:27:20.717Z,4.90
2023-02-17T05:28:22.790Z,4.60
2023-02-17T05:29:25.953Z,4.23
2023-02-17T05:30:29.006Z,4.53
2023-02-17T05:31:31.115Z,4.60
2023-02-17T05:32:34.273Z,4.43
2023-02-17T05:33:36.396Z,4.50
2023-02-17T05:34:39.853Z,5.00
2023-02-17T05:35:42.958Z,4.97
2023-02-17T05:36:45.105Z,5.27
2023-02-17T05:37:48.195Z,4.97
2023-02-17T05:38:51.189Z,4.70
2023-02-17T05:39:54.192Z,4.97
2023-02-17T05:40:57.577Z,4.47
2023-02-17T05:42:00.578Z,4.63
2023-02-17T05:43:02.626Z,4.73
2023-02-17T05:44:05.971Z,4.77
2023-02-17T05:45:09.622Z,4.57
2023-02-17T05:46:12.065Z,4.60
2023-02-17T05:47:15.121Z,4.63
2023-02-17T05:48:17.252Z,5.10
2023-02-17T05:49:20.316Z,4.47
2023-02-17T05:50:22.427Z,4.63
2023-02-17T05:51:25.547Z,4.97
2023-02-17T05:52:27.643Z,5.07
2023-02-17T05:53:30.676Z,4.93
2023-02-17T05:54:32.827Z,4.60
2023-02-17T05:55:35.879Z,5.50
2023-02-17T05:56:39.240Z,5.23
2023-02-17T05:57:42.312Z,4.73
2023-02-17T05:58:44.414Z,4.77
2023-02-17T05:59:47.531Z,4.90
2023-02-17T06:00:49.618Z,4.60
2023-02-17T06:01:52.655Z,5.43
2023-02-17T06:02:56.993Z,5.30
2023-02-17T06:03:59.620Z,5.07
2023-02-17T06:05:02.745Z,5.20
2023-02-17T06:06:06.357Z,6.10
2023-02-17T06:07:09.572Z,5.50
2023-02-17T06:08:11.657Z,5.23
2023-02-17T06:09:15.395Z,5.63
2023-02-17T06:10:17.681Z,5.17
2023-02-17T06:11:20.657Z,5.57
2023-02-17T06:12:25.140Z,4.90
2023-02-17T06:13:27.208Z,5.60
2023-02-17T06:14:30.359Z,4.83
2023-02-17T06:15:32.447Z,5.77
2023-02-17T06:16:35.505Z,5.63
2023-02-17T06:17:37.617Z,5.03
2023-02-17T06:18:40.631Z,5.77
2023-02-17T06:19:42.623Z,5.37
2023-02-17T06:20:45.963Z,5.50
2023-02-17T06:21:48.028Z,5.20
2023-02-17T06:22:51.054Z,4.90
2023-02-17T06:23:53.109Z,5.00
2023-02-17T06:24:56.216Z,5.07
2023-02-17T06:25:58.270Z,5.23
2023-02-17T06:27:02.378Z,4.80
2023-02-17T06:28:05.912Z,5.00
2023-02-17T06:29:09.039Z,5.10
2023-02-17T06:30:12.205Z,4.80
2023-02-17T06:31:15.314Z,4.93
2023-02-17T06:32:17.447Z,5.53
2023-02-17T06:33:20.471Z,5.33
2023-02-17T06:34:22.710Z,5.23
2023-02-17T06:35:26.031Z,4.97
2023-02-17T06:36:28.152Z,5.00
2023-02-17T06:37:31.203Z,5.10
2023-02-17T06:38:33.658Z,4.17
2023-02-17T06:39:36.666Z,4.30
2023-02-17T06:40:39.039Z,4.13
2023-02-17T06:41:42.750Z,4.03
2023-02-17T06:42:44.799Z,3.67
2023-02-17T06:43:49.169Z,4.17
2023-02-17T06:44:51.331Z,4.00
2023-02-17T06:45:54.570Z,3.97
2023-02-17T06:46:59.253Z,4.43
2023-02-17T06:48:01.426Z,4.47
2023-02-17T06:49:04.555Z,4.10
2023-02-17T06:50:08.285Z,4.20
2023-02-17T06:51:11.410Z,4.17
2023-02-17T06:52:13.533Z,4.40
2023-02-17T06:53:16.507Z,3.73
2023-02-17T06:54:19.569Z,4.70
2023-02-17T06:55:22.654Z,4.17
2023-02-17T06:56:25.750Z,4.97
2023-02-17T06:57:27.787Z,4.23
2023-02-17T06:58:32.638Z,4.50
2023-02-17T06:59:36.134Z,5.10
2023-02-17T07:00:39.149Z,4.33
2023-02-17T07:01:41.198Z,4.13
2023-02-17T07:02:44.308Z,4.53
2023-02-17T07:03:47.081Z,4.33
2023-02-17T07:04:50.306Z,4.10
2023-02-17T07:05:57.375Z,4.30
2023-02-17T07:07:00.453Z,4.43
2023-02-17T07:08:02.583Z,4.20
2023-02-17T07:09:05.698Z,3.97
2023-02-17T07:10:10.137Z,4.37
2023-02-17T07:11:13.917Z,3.80
2023-02-17T07:12:16.957Z,3.87
2023-02-17T07:13:19.961Z,3.77
2023-02-17T07:14:23.442Z,3.67
2023-02-17T07:15:29.364Z,4.23
2023-02-17T07:16:31.628Z,4.00
2023-02-17T07:17:34.667Z,4.23
2023-02-17T07:18:37.778Z,3.87
2023-02-17T07:19:40.826Z,3.20
2023-02-17T07:20:42.894Z,3.83
2023-02-17T07:21:46.665Z,3.90
2023-02-17T07:22:48.737Z,4.27
2023-02-17T07:23:51.801Z,3.97
2023-02-17T07:24:53.921Z,4.30
2023-02-17T07:25:56.954Z,3.87
2023-02-17T07:27:00.839Z,3.90
2023-02-17T07:28:03.843Z,4.20
2023-02-17T07:29:07.189Z,4.43
2023-02-17T07:30:11.146Z,4.50
2023-02-17T07:31:17.984Z,4.50
2023-02-17T07:32:20.089Z,4.23
2023-02-17T07:33:23.201Z,4.10
2023-02-17T07:34:26.306Z,4.13
2023-02-17T07:35:28.354Z,4.43
2023-02-17T07:36:31.543Z,4.57
2023-02-17T07:37:34.532Z,4.77
2023-02-17T07:38:36.919Z,4.40
2023-02-17T07:39:40.083Z,4.73
2023-02-17T07:40:42.108Z,4.77
2023-02-17T07:41:45.160Z,4.53
2023-02-17T07:42:47.216Z,4.53
2023-02-17T07:43:50.620Z,4.80
2023-02-17T07:44:52.678Z,4.70
2023-02-17T07:45:58.953Z,4.70
2023-02-17T07:47:02.706Z,4.93
2023-02-17T07:48:06.313Z,4.80
2023-02-17T07:49:08.711Z,4.83
2023-02-17T07:50:12.321Z,4.50
2023-02-17T07:51:15.946Z,4.77
2023-02-17T07:52:19.379Z,4.50
2023-02-17T07:53:21.439Z,4.23
2023-02-17T07:54:24.499Z,4.73
2023-02-17T07:55:27.806Z,4.53
2023-02-17T07:56:31.175Z,5.17
2023-02-17T07:57:33.223Z,4.40
2023-02-17T07:58:38.179Z,5.13
2023-02-17T07:59:40.412Z,4.40
2023-02-17T08:00:43.707Z,4.70
2023-02-17T08:01:46.746Z,4.60
2023-02-17T08:02:50.114Z,4.70
2023-02-17T08:03:54.103Z,4.70
2023-02-17T08:04:57.153Z,5.00
2023-02-17T08:05:59.192Z,4.70
2023-02-17T08:07:02.317Z,4.50
2023-02-17T08:08:22.953Z,5.03
2023-02-17T08:09:43.441Z,5.10
2023-02-17T08:11:04.328Z,4.80
2023-02-17T08:12:27.962Z,4.97
2023-02-17T08:13:30.970Z,5.13
2023-02-17T08:14:34.225Z,4.30
2023-02-17T08:15:36.417Z,4.97
2023-02-17T08:16:39.482Z,5.53
2023-02-17T08:17:43.130Z,4.90
2023-02-17T08:18:47.473Z,4.70
2023-02-17T08:19:49.690Z,4.80
2023-02-17T08:20:53.011Z,4.63
2023-02-17T08:21:55.222Z,4.70
2023-02-17T08:22:58.373Z,4.50
2023-02-17T08:24:00.367Z,4.43
2023-02-17T08:25:05.731Z,4.73
2023-02-17T08:26:08.973Z,4.60
2023-02-17T08:27:11.410Z,4.40
2023-02-17T08:28:14.555Z,4.10
2023-02-17T08:29:17.039Z,4.37
2023-02-17T08:30:20.410Z,4.70
2023-02-17T08:31:25.067Z,4.30
2023-02-17T08:32:28.383Z,4.63
2023-02-17T08:33:31.698Z,4.83
2023-02-17T08:34:36.586Z,4.20
2023-02-17T08:35:39.616Z,4.30
2023-02-17T08:36:42.689Z,4.17
2023-02-17T08:37:44.968Z,4.00
2023-02-17T08:38:50.397Z,4.30
2023-02-17T08:39:53.578Z,3.80
2023-02-17T08:40:55.722Z,3.83
2023-02-17T08:41:58.845Z,4.43
2023-02-17T08:43:03.394Z,4.00
2023-02-17T08:44:10.390Z,4.23
2023-02-17T08:45:14.356Z,4.87
2023-02-17T08:46:18.906Z,4.60
2023-02-17T08:47:21.030Z,5.47
2023-02-17T08:48:24.032Z,4.63
2023-02-17T08:49:28.420Z,3.97
2023-02-17T08:50:33.525Z,3.90
2023-02-17T08:51:36.800Z,4.60
2023-02-17T08:52:39.849Z,4.27
2023-02-17T08:53:42.252Z,4.83
2023-02-17T08:54:45.720Z,4.53
2023-02-17T08:55:49.703Z,4.33
2023-02-17T08:56:53.009Z,4.77
2023-02-17T08:57:55.279Z,4.63
2023-02-17T08:58:58.797Z,4.70
2023-02-17T09:00:01.939Z,4.70
2023-02-17T09:01:05.512Z,4.97
2023-02-17T09:02:08.102Z,4.93
2023-02-17T09:03:11.258Z,4.63
2023-02-17T09:04:16.220Z,4.67
2023-02-17T09:05:18.549Z,4.63
2023-02-17T09:06:23.102Z,4.67
2023-02-17T09:07:25.198Z,5.23
2023-02-17T09:08:28.243Z,4.83
2023-02-17T09:09:31.381Z,4.73
2023-02-17T09:10:34.501Z,5.00
2023-02-17T09:11:38.074Z,5.10
2023-02-17T09:12:41.656Z,4.70
2023-02-17T09:13:44.788Z,5.23
2023-02-17T09:14:47.809Z,4.63
2023-02-17T09:15:53.967Z,4.93
2023-02-17T09:16:58.282Z,4.60
2023-02-17T09:18:01.312Z,4.90
2023-02-17T09:19:04.639Z,4.60
2023-02-17T09:20:19.534Z,5.00
2023-02-17T09:21:28.606Z,4.37
2023-02-17T09:22:32.348Z,4.63
2023-02-17T09:23:36.007Z,4.67
2023-02-17T09:24:40.108Z,4.80
2023-02-17T09:25:43.449Z,4.47
2023-02-17T09:26:46.749Z,5.07
2023-02-17T09:27:50.204Z,4.47
2023-02-17T09:28:53.267Z,4.60
2023-02-17T09:29:56.385Z,4.73
2023-02-17T09:30:59.544Z,4.43
2023-02-17T09:32:02.951Z,4.37
2023-02-17T09:33:05.478Z,4.73
2023-02-17T09:34:08.511Z,4.37
2023-02-17T09:35:11.828Z,4.03
2023-02-17T09:36:18.141Z,4.10
2023-02-17T09:37:21.912Z,4.17
2023-02-17T09:38:25.110Z,4.40
2023-02-17T09:39:28.162Z,4.20
2023-02-17T09:40:42.997Z,4.13
2023-02-17T09:41:48.182Z,5.27
2023-02-17T09:42:51.606Z,3.97
2023-02-17T09:43:56.202Z,3.70
2023-02-17T09:45:04.031Z,3.80
2023-02-17T09:46:16.945Z,3.50
2023-02-17T09:47:24.457Z,4.00
2023-02-17T09:48:32.101Z,3.57
2023-02-17T09:49:40.520Z,5.10
2023-02-17T09:50:49.183Z,4.00
2023-02-17T09:52:00.831Z,3.93
2023-02-17T09:53:10.833Z,3.60
2023-02-17T09:54:19.046Z,3.97
2023-02-17T09:55:26.593Z,3.93
2023-02-17T09:56:34.983Z,3.73
2023-02-17T09:57:43.206Z,3.57
2023-02-17T09:58:51.572Z,3.40
2023-02-17T09:59:58.612Z,3.30
2023-02-17T10:01:04.157Z,3.30
2023-02-17T10:02:12.006Z,3.40
2023-02-17T10:03:20.127Z,3.40
2023-02-17T10:04:27.275Z,3.20
2023-02-17T10:05:37.327Z,3.27
2023-02-17T10:06:42.914Z,3.30
2023-02-17T10:07:50.214Z,3.43
2023-02-17T10:09:00.201Z,3.23
2023-02-17T10:10:08.375Z,3.33
2023-02-17T10:11:18.702Z,3.20
2023-02-17T10:12:25.858Z,3.50
2023-02-17T10:13:32.684Z,3.03
2023-02-17T10:14:41.161Z,3.27
2023-02-17T10:15:49.593Z,2.90
2023-02-17T10:17:00.953Z,2.60
2023-02-17T10:18:11.596Z,3.00
2023-02-17T10:19:17.354Z,3.27
2023-02-17T10:20:26.617Z,3.17
2023-02-17T10:21:35.056Z,2.87
2023-02-17T10:22:40.935Z,3.00
2023-02-17T10:23:46.112Z,3.00
2023-02-17T10:24:51.347Z,2.43
2023-02-17T10:26:13.784Z,3.20
2023-02-17T10:27:28.576Z,4.00
2023-02-17T10:28:43.948Z,2.90
2023-02-17T10:29:56.964Z,2.60
2023-02-17T10:31:04.903Z,2.80
2023-02-17T10:32:20.157Z,2.97
2023-02-17T10:33:29.888Z,3.00
2023-02-17T10:34:37.405Z,3.10
2023-02-17T10:35:50.291Z,2.90
2023-02-17T10:37:00.761Z,2.97
2023-02-17T10:38:15.182Z,2.90
2023-02-17T10:39:37.952Z,2.93
2023-02-17T10:40:44.962Z,2.90
2023-02-17T10:41:50.945Z,2.87
2023-02-17T10:42:57.054Z,2.93
2023-02-17T10:44:01.608Z,3.13
2023-02-17T10:45:07.611Z,2.80
2023-02-17T10:46:12.768Z,3.03
2023-02-17T10:47:16.191Z,2.83
2023-02-17T10:48:22.357Z,2.83
2023-02-17T10:49:30.050Z,3.07
2023-02-17T10:50:33.420Z,2.83
2023-02-17T10:51:35.584Z,3.10
2023-02-17T10:52:41.298Z,2.57
2023-02-17T10:53:48.236Z,2.77
2023-02-17T10:54:55.314Z,2.77
2023-02-17T10:56:05.944Z,3.20
2023-02-17T10:57:12.121Z,3.17
2023-02-17T10:58:23.054Z,3.07
2023-02-17T10:59:30.888Z,2.80
2023-02-17T11:00:33.454Z,2.80
2023-02-17T11:01:38.089Z,2.67
2023-02-17T11:02:43.086Z,2.47
2023-02-17T11:03:46.153Z,3.30
2023-02-17T11:04:51.036Z,3.10
2023-02-17T11:05:56.285Z,2.63
2023-02-17T11:07:00.998Z,2.67
2023-02-17T11:08:07.169Z,2.73
2023-02-17T11:09:21.257Z,2.70
2023-02-17T11:10:28.178Z,2.77
2023-02-17T11:11:34.113Z,2.83
2023-02-17T11:12:42.255Z,3.83
2023-02-17T11:13:57.627Z,2.77
2023-02-17T11:15:03.951Z,3.40
2023-02-17T11:16:08.020Z,2.90
2023-02-17T11:17:17.503Z,2.60
2023-02-17T11:18:25.802Z,3.07
2023-02-17T11:19:33.732Z,3.17
2023-02-17T11:20:37.860Z,3.03
2023-02-17T11:21:44.722Z,2.70
2023-02-17T11:22:49.895Z,2.83
2023-02-17T11:23:57.225Z,2.73
2023-02-17T11:25:00.390Z,2.63
2023-02-17T11:26:10.972Z,2.73
2023-02-17T11:27:25.749Z,2.80
2023-02-17T11:28:29.469Z,2.60
2023-02-17T11:29:34.135Z,2.53
2023-02-17T11:30:38.605Z,3.20
2023-02-17T11:31:41.691Z,2.80
2023-02-17T11:32:43.849Z,3.20
2023-02-17T11:33:46.839Z,2.87
2023-02-17T11:34:58.160Z,2.90
2023-02-17T11:36:02.179Z,2.80
2023-02-17T11:37:19.693Z,2.67
2023-02-17T11:38:25.752Z,2.93
2023-02-17T11:39:29.345Z,2.67
2023-02-17T11:40:33.921Z,2.93
2023-02-17T11:41:39.803Z,3.17
2023-02-17T11:42:44.128Z,3.13
2023-02-17T11:43:55.144Z,2.53
2023-02-17T11:44:59.912Z,2.87
2023-02-17T11:46:12.962Z,3.10
2023-02-17T11:47:26.058Z,2.67
2023-02-17T11:48:46.681Z,2.47
2023-02-17T11:50:12.704Z,3.00
2023-02-17T11:51:23.594Z,2.70
2023-02-17T11:52:49.422Z,3.03
2023-02-17T11:54:02.534Z,2.70
2023-02-17T11:55:19.754Z,3.07
2023-02-17T11:56:26.707Z,2.97
2023-02-17T11:57:39.408Z,2.97
2023-02-17T11:59:00.326Z,2.77
2023-02-17T12:00:14.740Z,3.07
2023-02-17T12:01:30.853Z,2.80
2023-02-17T12:03:04.019Z,2.53
2023-02-17T12:04:26.041Z,2.70
2023-02-17T12:05:39.698Z,3.00
2023-02-17T12:06:49.569Z,2.50
2023-02-17T12:08:09.448Z,2.57
2023-02-17T12:09:20.796Z,3.07
2023-02-17T12:10:34.192Z,2.93
2023-02-17T12:11:45.211Z,3.10
2023-02-17T12:13:16.595Z,2.37
2023-02-17T12:14:42.014Z,2.50
2023-02-17T12:15:56.870Z,3.00
2023-02-17T12:17:06.754Z,2.43
2023-02-17T12:18:27.648Z,2.73
2023-02-17T12:19:41.192Z,3.10
2023-02-17T12:20:51.713Z,2.63
2023-02-17T12:22:03.308Z,2.57
2023-02-17T12:23:18.120Z,2.73
2023-02-17T12:24:41.158Z,2.80
2023-02-17T12:25:49.896Z,2.60
2023-02-17T12:27:01.414Z,3.03
2023-02-17T12:28:27.922Z,2.67
2023-02-17T12:29:56.835Z,2.80
2023-02-17T12:31:11.080Z,2.90
2023-02-17T12:32:27.374Z,2.70
2023-02-17T12:33:41.941Z,2.60
2023-02-17T12:34:49.106Z,3.43
2023-02-17T12:35:55.353Z,2.47
2023-02-17T12:37:00.222Z,2.77
2023-02-17T12:38:12.171Z,3.03
2023-02-17T12:39:20.493Z,3.13
2023-02-17T12:40:35.498Z,3.10
2023-02-17T12:41:42.103Z,2.80
2023-02-17T12:42:51.544Z,2.83
2023-02-17T12:43:58.010Z,2.93
2023-02-17T12:45:06.820Z,2.63
2023-02-17T12:46:13.479Z,2.77
2023-02-17T12:47:17.511Z,3.03
2023-02-17T12:48:27.756Z,3.47
2023-02-17T12:49:36.888Z,3.23
2023-02-17T12:50:52.360Z,3.10
2023-02-17T12:51:59.960Z,3.70
2023-02-17T12:53:07.625Z,2.80
2023-02-17T12:54:17.122Z,3.00
2023-02-17T12:55:23.582Z,2.90
2023-02-17T12:56:54.963Z,3.00
2023-02-17T12:58:00.771Z,2.90
2023-02-17T12:59:12.576Z,2.80
2023-02-17T13:00:22.070Z,2.70
2023-02-17T13:01:26.485Z,2.70
2023-02-17T13:02:30.782Z,3.10
2023-02-17T13:03:34.808Z,2.70
2023-02-17T13:04:39.116Z,2.73
2023-02-17T13:05:48.986Z,3.10
2023-02-17T13:06:57.491Z,3.03
2023-02-17T13:08:05.706Z,3.23
2023-02-17T13:09:22.039Z,2.80
2023-02-17T13:10:34.503Z,3.33
2023-02-17T13:11:37.659Z,3.17
2023-02-17T13:12:40.909Z,2.80
2023-02-17T13:13:43.943Z,2.80
2023-02-17T13:14:48.182Z,3.17
2023-02-17T13:16:04.079Z,2.80
2023-02-17T13:17:06.308Z,2.40
2023-02-17T13:18:13.944Z,2.87
2023-02-17T13:19:16.216Z,2.60
2023-02-17T13:20:51.010Z,2.60
2023-02-17T13:21:55.751Z,2.60
2023-02-17T13:23:08.161Z,2.50
2023-02-17T13:24:17.032Z,2.57
2023-02-17T13:25:30.079Z,2.80
2023-02-17T13:26:35.326Z,2.70
2023-02-17T13:27:39.757Z,3.23
2023-02-17T13:28:43.219Z,2.73
2023-02-17T13:29:46.309Z,2.90
2023-02-17T13:30:52.217Z,2.90
2023-02-17T13:31:58.747Z,3.20
2023-02-17T13:33:02.577Z,2.90
2023-02-17T13:34:05.669Z,3.43
2023-02-17T13:35:30.388Z,3.00
2023-02-17T13:36:38.199Z,3.50
2023-02-17T13:37:43.741Z,3.00
2023-02-17T13:39:00.400Z,3.10
2023-02-17T13:40:25.910Z,3.07
2023-02-17T13:41:29.610Z,3.00
2023-02-17T13:42:44.087Z,2.90
2023-02-17T13:43:47.061Z,2.90
2023-02-17T13:44:52.621Z,3.20
2023-02-17T13:45:59.618Z,2.93
2023-02-17T13:47:12.366Z,3.10
2023-02-17T13:48:25.403Z,2.90
2023-02-17T13:49:32.845Z,3.00
2023-02-17T13:50:38.071Z,2.80
2023-02-17T13:51:41.248Z,3.20
2023-02-17T13:52:43.840Z,3.07
2023-02-17T13:53:51.099Z,2.80
2023-02-17T13:54:56.129Z,2.70
2023-02-17T13:56:00.469Z,2.70
2023-02-17T13:57:03.596Z,3.50
2023-02-17T13:58:06.663Z,3.20
2023-02-17T13:59:12.414Z,2.80
2023-02-17T14:00:23.256Z,3.33
2023-02-17T14:01:28.864Z,3.37
2023-02-17T14:02:36.272Z,3.20
2023-02-17T14:03:46.505Z,3.00
2023-02-17T14:04:48.702Z,3.10
2023-02-17T14:05:53.512Z,3.10
2023-02-17T14:06:59.424Z,2.80
2023-02-17T14:08:07.255Z,3.07
2023-02-17T14:09:16.029Z,2.70
2023-02-17T14:10:20.140Z,2.63
2023-02-17T14:11:25.947Z,2.90
2023-02-17T14:12:28.650Z,2.80
2023-02-17T14:13:31.732Z,2.83
2023-02-17T14:14:37.140Z,3.00
2023-02-17T14:15:51.468Z,2.73
2023-02-17T14:17:03.295Z,2.70
2023-02-17T14:18:15.773Z,2.77
2023-02-17T14:19:20.267Z,2.73
2023-02-17T14:20:32.029Z,2.80
2023-02-17T14:21:35.743Z,2.37
2023-02-17T14:22:37.971Z,3.40
2023-02-17T14:23:43.606Z,2.77
2023-02-17T14:24:46.871Z,2.97
2023-02-17T14:25:51.524Z,2.70
2023-02-17T14:26:59.494Z,2.60
2023-02-17T14:28:01.630Z,2.80
2023-02-17T14:29:06.778Z,2.87
2023-02-17T14:30:14.444Z,2.70
2023-02-17T14:31:21.255Z,2.60
2023-02-17T14:32:33.099Z,2.83
2023-02-17T14:33:36.501Z,2.67
2023-02-17T14:34:39.541Z,2.73
2023-02-17T14:35:51.916Z,2.50
2023-02-17T14:36:55.630Z,2.30
2023-02-17T14:38:07.675Z,2.27
2023-02-17T14:39:16.436Z,2.60
2023-02-17T14:40:20.861Z,2.40
2023-02-17T14:41:23.892Z,2.47
2023-02-17T14:42:26.007Z,2.50
2023-02-17T14:43:29.108Z,2.43
2023-02-17T14:44:32.059Z,2.30
2023-02-17T14:45:34.091Z,2.30
2023-02-17T14:46:38.487Z,2.60
2023-02-17T14:47:40.672Z,2.50
2023-02-17T14:48:44.984Z,2.40
2023-02-17T14:49:48.015Z,2.30
2023-02-17T14:50:50.152Z,2.60
2023-02-17T14:51:53.235Z,2.33
2023-02-17T14:52:56.122Z,2.60
2023-02-17T14:53:59.606Z,2.60
2023-02-17T14:55:01.653Z,2.43
2023-02-17T14:56:09.573Z,2.13
2023-02-17T14:57:13.774Z,2.40
2023-02-17T14:58:21.110Z,2.30
2023-02-17T14:59:24.097Z,2.90
2023-02-17T15:00:27.773Z,2.50
2023-02-17T15:01:31.077Z,2.30
2023-02-17T15:02:37.668Z,2.40
2023-02-17T15:03:40.685Z,2.37
2023-02-17T15:04:44.361Z,2.40
2023-02-17T15:05:48.136Z,2.20
2023-02-17T15:06:54.491Z,2.53
2023-02-17T15:07:56.617Z,2.47
2023-02-17T15:09:01.287Z,2.37
2023-02-17T15:10:10.551Z,2.60
2023-02-17T15:11:20.189Z,2.10
2023-02-17T15:12:25.112Z,2.47
2023-02-17T15:13:31.683Z,2.40
2023-02-17T15:14:34.872Z,2.67
2023-02-17T15:15:39.230Z,2.10
2023-02-17T15:16:42.294Z,2.73
2023-02-17T15:17:44.482Z,2.63
2023-02-17T15:18:47.501Z,2.70
2023-02-17T15:19:50.863Z,2.40
2023-02-17T15:20:54.151Z,2.47
2023-02-17T15:22:01.210Z,2.20
2023-02-17T15:23:04.287Z,2.10
2023-02-17T15:24:15.894Z,2.40
2023-02-17T15:25:22.317Z,2.23
2023-02-17T15:26:26.023Z,2.63
2023-02-17T15:27:28.052Z,2.70
2023-02-17T15:28:31.053Z,2.70
2023-02-17T15:29:33.116Z,2.90
2023-02-17T15:30:37.445Z,2.20
2023-02-17T15:31:39.666Z,2.70
2023-02-17T15:32:43.586Z,2.50
2023-02-17T15:33:50.275Z,2.67
2023-02-17T15:35:00.044Z,2.93
2023-02-17T15:36:03.078Z,2.70
2023-02-17T15:37:06.035Z,2.60
2023-02-17T15:38:11.643Z,2.73
2023-02-17T15:39:17.318Z,2.80
2023-02-17T15:40:22.729Z,2.53
2023-02-17T15:41:29.805Z,2.80
2023-02-17T15:42:33.290Z,2.60
2023-02-17T15:44:48.030Z,2.73
2023-02-17T15:45:50.385Z,2.70
2023-02-17T15:46:56.251Z,2.57
2023-02-17T15:48:02.855Z,2.67
2023-02-17T15:49:06.789Z,2.70
2023-02-17T15:50:20.425Z,2.60
2023-02-17T15:51:24.825Z,2.60
2023-02-17T15:52:26.919Z,2.40
2023-02-17T15:53:33.078Z,2.50
2023-02-17T15:54:36.061Z,2.63
2023-02-17T15:55:40.558Z,2.87
2023-02-17T15:56:47.226Z,2.40
2023-02-17T15:57:51.374Z,2.40
2023-02-17T15:58:55.255Z,2.60
2023-02-17T15:59:57.665Z,2.27
2023-02-17T16:01:03.912Z,2.57
2023-02-17T16:02:20.831Z,2.70
2023-02-17T16:03:24.231Z,2.53
2023-02-17T16:04:27.312Z,2.60